Nearby METAR Reports

 

YMER - Merimbula Arpt, Australia
Distance from station: SE 12km
Updated: 01/12/2020 01:00
Partly cloudy
Partly cloudy
 Wind from N
Wind: N 13 km/h
Temperature: 18°C
Dew Point: 15°C
Humidity: 83%
Barometer: 1012 hPa
Clouds: Partly cloudy
Visibility: 10 km
Cloud details: Partly cloudy 884 m
2020/11/30 14:00 YMER 301400Z AUTO 01007KT 9999 // SCT029 18/15 Q1012
YCOM - Cooma Snowy Mtns, Australia
Distance from station: NW 96km
Updated: 01/12/2020 01:00
Clear
Clear
 Wind from NE
Wind: NE 20 km/h
Temperature: 12°C
Dew Point: 11°C
Humidity: 94%
Barometer: 1014 hPa
Clouds: Clear
Visibility: 10 km
2020/11/30 14:00 YCOM 301400Z AUTO 04011KT 9999 // NCD 12/11 Q1014
 
YSCB - Canberra (civ/Mi, Australia
Distance from station: NNW 182km
Updated: 01/12/2020 01:00
Clear
Clear
 Wind from SE
Wind: SE 7 km/h
Temperature: 13°C
Dew Point: 12°C
Humidity: 94%
Barometer: 1015 hPa
Clouds: Clear
Visibility: 10 km
2020/11/30 14:00 YSCB 301400Z AUTO 14004KT 110V170 9999 // NCD 13/12 Q1015
YSNW - Nowra (aus-Navy), Australia
Distance from station: NNE 219km
Updated: 01/12/2020 01:00
Clear
Clear
 Wind from NNW
Wind: NNW 4 km/h
Temperature: 16°C
Dew Point: 13°C
Humidity: 83%
Barometer: 1015 hPa
Clouds: Clear
Visibility: 10 km
2020/11/30 14:00 YSNW 301400Z AUTO 33002KT 9999 // NCD 16/13 Q1015
 
YMAY - Albury Airport, Australia
Distance from station: WNW 271km
Updated: 01/12/2020 01:00
Clear
Clear
 Wind from ESE
Wind: ESE 7 km/h
Temperature: 19°C
Dew Point: 13°C
Humidity: 68%
Barometer: 1009 hPa
Clouds: Clear
Visibility: 10 km
2020/11/30 14:00 YMAY 301400Z AUTO 12004KT 080V140 9999 // NCD 19/13 Q1009
YSWG - Wagga Wagga(Cv/M, Australia
Distance from station: NW 283km
Updated: 01/12/2020 01:00
Clear
Clear
 Wind from E
Wind: E 22 km/h
Temperature: 21°C
Dew Point: 12°C
Humidity: 57%
Barometer: 1009 hPa
Clouds: Clear
Visibility: 10 km
2020/11/30 14:00 YSWG 301400Z AUTO 09012KT 9999 // NCD 21/12 Q1009
 
YWGT - Wangaratta Arp, Australia
Distance from station: W 317km
Updated: 01/12/2020 01:00
Clear
Clear
 Wind from NNE
Wind: NNE 4 km/h
Temperature: 19°C
Dew Point: 11°C
Humidity: 60%
Barometer: 1008 hPa
Clouds: Clear
2020/11/30 14:00 YWGT 301400Z AUTO 03002KT //// // NCD 19/11 Q1008
YSSY - Sydney Intl Airp, Australia
Distance from station: NNE 343km
Updated: 01/12/2020 01:00
Mostly cloudy
Mostly cloudy
 Wind from NNE
Wind: NNE 20 km/h
Temperature: 21°C
Dew Point: 14°C
Humidity: 64%
Barometer: 1016 hPa
Clouds: Mostly cloudy
Visibility: 10 km
Cloud details: Few Clouds 1067 m
Mostly cloudy 1524 m
2020/11/30 14:00 YSSY 301400Z 02011KT 9999 FEW035 BKN050 21/14 Q1016